Aérodrome :
LOGIN :

S'inscrire | Disclaimer

   EN    FR    IT 

 










Légende :    VFR   VFR Marginal   IFR   IFR Intensif   IFR Très Intensif
Visi : 
Plafond : 
>= 8 km
>= 3000ft
5 à 8 km
1000 à 3000 ft
1500m à 5 km
500 à 1000 ft
800 à 1500m
200 à 500 ft
< 800m
< 200 ft
Symboles :   Orages  Brouillard  Fortes neiges  Fortes précipitations  Vent > 20 kt
SIGMETs :   Divers  Orages  Givrage  Turbulence  Onde Orograph.  Cendres Volcan.







- Altitude de l'aérodrome : 375 ft
- Code IATA : MST


EHBK - Maastricht Aachen

DERNIER METAR :
  • 291255Z AUTO 23017KT 200V290 9999 SCT026 BKN030 15/09 Q1025 NOSIG

METARs EXPIRÉS :
  • 291225Z AUTO 23017KT 210V270 9999 FEW025 15/09 Q1025 NOSIG
  • 291155Z AUTO 23016KT 200V270 9999 FEW022 14/09 Q1025 NOSIG
  • 291125Z AUTO 23016KT 200V270 9999 SCT019 BKN023 OVC043 14/09 Q1025 NOSIG
  • 291055Z AUTO 23014KT 200V260 9999 SCT018 BKN021 BKN025 13/09 Q1026 NOSIG
  • 291025Z AUTO 25008KT 200V300 9999 BKN017 OVC020 12/08 Q1026 NOSIG

TAF TAF EHBK
Valide du 29 à 12h jusqu'au 30 à 18h UTC


291100Z 2912/3018 25014G24KT 9999 BKN020
BECMG 2917/2920 22007KT
Pas de NOTAMs connus pour ce terrain.



MET'MAP, la Météo Aéronautique d'un coup d'oeil ! - Copyright ORBIFLY Décembre 2007 - Disclaimer

ORBIFLY MET'MAP TEAM :

Programmation & Développement : Alexandra Zaïnal
Conception & Développement : Baudouin d'Aumeries
Co-Programmation & Développement : Marc-Olivier Méhu
Soutien technique & logistique : Manuel Goepfert

Contact : metmap@orbifly.com




SOURCES & CREDITS :

   NOAA